Time;durP1;ratioP1;P1;durP2;ratioP2;P2;SDS_P1;SDS_P2;PMS_P1;PMS_P2;Temp;Humidity;BMP_temperature;BMP_pressure;BME280_temperature;BME280_humidity;BME280_pressure;Samples;Min_cycle;Max_cycle;Signal;HPM_P1;HPM_P2
2021/04/06 00:01:02;;;;;;;3.93;1.20;;;1.40;99.90;;;;;;5022266;28;20476;-77
2021/04/06 00:03:30;;;;;;;4.33;1.30;;;1.30;99.90;;;;;;5008162;28;20476;-77
2021/04/06 00:06:03;;;;;;;4.17;1.40;;;1.40;99.90;;;;;;5024776;28;20519;-77
2021/04/06 00:08:31;;;;;;;5.43;1.30;;;1.40;99.90;;;;;;5008909;28;20834;-77
2021/04/06 00:11:04;;;;;;;4.60;0.90;;;1.30;99.90;;;;;;4997974;28;20469;-77
2021/04/06 00:13:36;;;;;;;4.73;1.10;;;1.30;99.90;;;;;;4989882;28;21043;-78
2021/04/06 00:16:07;;;;;;;4.23;1.03;;;1.30;99.90;;;;;;4992101;28;20481;-78
2021/04/06 00:18:36;;;;;;;3.63;1.00;;;1.30;99.90;;;;;;4992555;28;20496;-77
2021/04/06 00:21:06;;;;;;;5.40;1.10;;;1.40;99.90;;;;;;4991587;28;20505;-78
2021/04/06 00:23:34;;;;;;;3.20;1.30;;;1.30;99.90;;;;;;5006706;28;20859;-78
2021/04/06 00:26:03;;;;;;;5.80;1.30;;;1.30;99.90;;;;;;4997726;28;20499;-78
2021/04/06 00:28:35;;;;;;;3.73;1.43;;;1.20;99.90;;;;;;5010623;28;20488;-78
2021/04/06 00:31:04;;;;;;;3.87;0.90;;;1.20;99.90;;;;;;5010097;28;20550;-78
2021/04/06 00:33:37;;;;;;;5.37;1.33;;;1.20;99.90;;;;;;5011669;28;20837;-78
2021/04/06 00:36:07;;;;;;;1.47;0.80;;;1.20;99.90;;;;;;5011302;28;20551;-78
2021/04/06 00:38:39;;;;;;;2.57;1.30;;;1.20;99.90;;;;;;5006699;28;20536;-78
2021/04/06 00:41:12;;;;;;;2.57;1.27;;;1.20;99.90;;;;;;4990713;28;21241;-78
2021/04/06 00:43:41;;;;;;;4.13;1.30;;;1.20;99.90;;;;;;5001760;28;20484;-78
2021/04/06 00:46:21;;;;;;;3.23;1.17;;;1.20;99.90;;;;;;5021547;28;21031;-78
2021/04/06 00:48:50;;;;;;;6.03;1.17;;;1.20;99.90;;;;;;5008437;28;20504;-78
2021/04/06 00:51:20;;;;;;;4.70;1.23;;;1.20;99.90;;;;;;5009886;28;21022;-78
2021/04/06 00:54:00;;;;;;;5.27;1.20;;;1.20;99.90;;;;;;5011057;28;20468;-78
2021/04/06 00:56:29;;;;;;;2.87;1.10;;;1.20;99.90;;;;;;5010646;28;20522;-78
2021/04/06 00:59:00;;;;;;;4.20;1.00;;;1.30;99.90;;;;;;4991551;28;20481;-78
2021/04/06 01:01:40;;;;;;;2.17;1.00;;;1.30;99.90;;;;;;4990596;28;20561;-78
2021/04/06 01:04:11;;;;;;;2.50;1.13;;;1.30;99.90;;;;;;5010840;28;20521;-78
2021/04/06 01:06:58;;;;;;;1.30;1.00;;;1.40;99.90;;;;;;5028368;28;20475;-78
2021/04/06 01:09:48;;;;;;;2.40;1.07;;;1.40;99.90;;;;;;5010493;28;20495;-78
2021/04/06 01:12:17;;;;;;;3.80;1.27;;;1.40;99.90;;;;;;5009564;28;20564;-78
2021/04/06 01:14:48;;;;;;;2.90;1.27;;;1.40;99.90;;;;;;5010995;28;20488;-78
2021/04/06 01:17:18;;;;;;;4.63;1.23;;;1.40;99.90;;;;;;5010790;28;20480;-78
2021/04/06 01:19:46;;;;;;;3.63;1.20;;;1.40;99.90;;;;;;5010298;28;20485;-78
2021/04/06 01:22:17;;;;;;;2.70;1.20;;;1.40;99.90;;;;;;5011179;28;20488;-78
2021/04/06 01:24:46;;;;;;;4.60;1.27;;;1.30;99.90;;;;;;5011214;28;21000;-78
2021/04/06 01:27:16;;;;;;;5.83;1.47;;;1.30;99.90;;;;;;4991391;28;20540;-78
2021/04/06 01:29:49;;;;;;;2.47;1.33;;;1.30;99.90;;;;;;4991268;28;20536;-78
2021/04/06 01:32:19;;;;;;;2.43;1.00;;;1.30;99.90;;;;;;5008572;28;20535;-78
2021/04/06 01:34:47;;;;;;;3.90;1.20;;;1.30;99.90;;;;;;5008511;28;20484;-78
2021/04/06 01:37:20;;;;;;;3.40;1.30;;;1.30;99.90;;;;;;5010265;28;20608;-78
2021/04/06 01:39:50;;;;;;;4.43;1.30;;;1.20;99.90;;;;;;5004056;28;20484;-78
2021/04/06 01:42:20;;;;;;;4.87;1.10;;;1.30;99.90;;;;;;5010764;28;20489;-78
2021/04/06 01:44:50;;;;;;;4.20;1.20;;;1.30;99.90;;;;;;5004649;28;20874;-78
2021/04/06 01:47:18;;;;;;;1.33;0.90;;;1.30;99.90;;;;;;5010949;28;20477;-78
2021/04/06 01:49:46;;;;;;;5.07;1.30;;;1.30;99.90;;;;;;5012127;28;20488;-78
2021/04/06 01:52:14;;;;;;;3.37;1.50;;;1.30;99.90;;;;;;5030968;28;20575;-78
2021/04/06 01:54:44;;;;;;;2.43;1.07;;;1.30;99.90;;;;;;5019150;28;20566;-78
2021/04/06 01:57:17;;;;;;;5.60;1.27;;;1.30;99.90;;;;;;5011044;28;20816;-78
2021/04/06 01:59:50;;;;;;;5.83;1.60;;;1.30;99.90;;;;;;5010639;28;21061;-78
2021/04/06 02:02:17;;;;;;;2.83;1.03;;;1.20;99.90;;;;;;5010306;28;20453;-78
2021/04/06 02:04:46;;;;;;;5.07;1.20;;;1.30;99.90;;;;;;5002966;28;20484;-78
2021/04/06 02:07:16;;;;;;;3.73;1.30;;;1.30;99.90;;;;;;4991717;28;20509;-78
2021/04/06 02:09:47;;;;;;;5.47;1.60;;;1.30;99.90;;;;;;4993853;28;20485;-78
2021/04/06 02:12:20;;;;;;;3.77;1.10;;;1.30;99.90;;;;;;4995615;28;20466;-78
2021/04/06 02:14:59;;;;;;;3.50;1.30;;;1.40;99.90;;;;;;5014362;28;21034;-78
2021/04/06 02:17:26;;;;;;;4.23;1.97;;;1.30;99.90;;;;;;5015085;28;20477;-78
2021/04/06 02:19:53;;;;;;;4.67;1.87;;;1.30;99.90;;;;;;5014369;28;20532;-78
2021/04/06 02:22:21;;;;;;;3.87;1.30;;;1.30;99.90;;;;;;5013989;28;20475;-78
2021/04/06 02:24:50;;;;;;;8.00;1.97;;;1.40;99.90;;;;;;5014586;28;21005;-78
2021/04/06 02:27:21;;;;;;;7.67;1.67;;;1.40;99.90;;;;;;5013966;28;20548;-78
2021/04/06 02:29:51;;;;;;;8.00;1.67;;;1.40;99.90;;;;;;5013773;28;20570;-78
2021/04/06 02:32:21;;;;;;;7.80;1.60;;;1.40;99.90;;;;;;5013680;28;20456;-78
2021/04/06 02:34:50;;;;;;;3.10;1.47;;;1.50;99.90;;;;;;5014196;28;20573;-78
2021/04/06 02:37:21;;;;;;;5.40;1.60;;;1.40;99.90;;;;;;5009757;28;20477;-78
2021/04/06 02:39:49;;;;;;;2.80;1.70;;;1.50;99.90;;;;;;5009571;28;20553;-78
2021/04/06 02:42:27;;;;;;;9.57;2.00;;;1.50;99.90;;;;;;5009096;28;20493;-78
2021/04/06 02:44:58;;;;;;;8.13;1.93;;;1.40;99.90;;;;;;5012786;28;21045;-78
2021/04/06 02:47:26;;;;;;;2.87;1.50;;;1.40;99.90;;;;;;5018735;28;20494;-78
2021/04/06 02:49:53;;;;;;;4.60;1.93;;;1.40;99.90;;;;;;5017979;28;20561;-78
2021/04/06 02:52:21;;;;;;;6.73;2.00;;;1.50;99.90;;;;;;4992802;28;20534;-78
2021/04/06 02:54:49;;;;;;;4.63;1.63;;;1.50;99.90;;;;;;4993555;28;20474;-78
2021/04/06 02:57:23;;;;;;;3.83;1.60;;;1.60;99.90;;;;;;4993807;28;20824;-78
2021/04/06 02:59:52;;;;;;;5.33;1.90;;;1.60;99.90;;;;;;5007056;28;20478;-78
2021/04/06 03:02:19;;;;;;;4.80;1.70;;;1.60;99.90;;;;;;5032468;28;20483;-78
2021/04/06 03:04:48;;;;;;;9.20;2.13;;;1.60;99.90;;;;;;5031829;28;20485;-78
2021/04/06 03:07:24;;;;;;;5.63;1.70;;;1.50;99.90;;;;;;5048272;28;20927;-78
2021/04/06 03:09:55;;;;;;;6.83;2.53;;;1.50;99.90;;;;;;5020834;28;20537;-78
2021/04/06 03:12:28;;;;;;;5.63;1.87;;;1.50;99.90;;;;;;5012531;28;20971;-78
2021/04/06 03:14:57;;;;;;;8.33;2.30;;;1.50;99.90;;;;;;5013682;28;20480;-78
2021/04/06 03:17:25;;;;;;;5.87;1.57;;;1.60;99.90;;;;;;5028387;28;20527;-78
2021/04/06 03:19:57;;;;;;;7.20;1.77;;;1.70;99.90;;;;;;4972578;28;20472;-78
2021/04/06 03:22:26;;;;;;;6.73;2.17;;;1.90;99.90;;;;;;4995359;28;20478;-78
2021/04/06 03:24:53;;;;;;;6.93;2.07;;;1.90;99.90;;;;;;5009132;28;20510;-78
2021/04/06 03:27:29;;;;;;;8.20;2.13;;;1.80;99.90;;;;;;5012977;28;20497;-78
2021/04/06 03:29:57;;;;;;;9.87;2.60;;;1.80;99.90;;;;;;5012675;28;20484;-78
2021/04/06 03:32:25;;;;;;;11.63;2.95;;;1.70;99.90;;;;;;5011256;28;20435;-78
2021/04/06 03:34:54;;;;;;;10.03;2.00;;;1.70;99.90;;;;;;5007925;28;20235;-78
2021/04/06 03:37:22;;;;;;;10.20;3.20;;;1.60;99.90;;;;;;5008497;28;20503;-78
2021/04/06 03:39:50;;;;;;;8.50;2.23;;;1.60;99.90;;;;;;5007181;28;20495;-78
2021/04/06 03:42:23;;;;;;;7.60;2.13;;;1.60;99.90;;;;;;5012457;28;20486;-78
2021/04/06 03:45:04;;;;;;;11.13;2.27;;;1.60;99.90;;;;;;5017104;28;20469;-78
2021/04/06 03:47:57;;;;;;;11.83;2.77;;;1.50;99.90;;;;;;5032631;28;20478;-78
2021/04/06 03:50:37;;;;;;;13.03;3.03;;;1.50;99.90;;;;;;5013185;28;20476;-79
2021/04/06 03:53:06;;;;;;;9.27;2.23;;;1.40;99.90;;;;;;5013747;28;20482;-78
2021/04/06 03:55:35;;;;;;;7.07;2.20;;;1.50;99.90;;;;;;5028501;28;20473;-79
2021/04/06 03:58:07;;;;;;;10.20;1.93;;;1.40;99.90;;;;;;5016334;28;20564;-78
2021/04/06 04:00:35;;;;;;;8.67;2.33;;;1.40;99.90;;;;;;5012690;28;20508;-78
2021/04/06 04:03:03;;;;;;;8.77;2.40;;;1.40;99.90;;;;;;5013047;28;20484;-78
2021/04/06 04:05:30;;;;;;;8.97;2.30;;;1.40;99.90;;;;;;5014035;28;20476;-78
2021/04/06 04:07:58;;;;;;;12.00;2.20;;;1.40;99.90;;;;;;5024630;28;20485;-78
2021/04/06 04:10:26;;;;;;;8.83;2.07;;;1.40;99.90;;;;;;4993366;28;20471;-79
2021/04/06 04:12:53;;;;;;;11.53;2.00;;;1.50;99.90;;;;;;4993885;28;20966;-78
2021/04/06 04:15:21;;;;;;;13.27;2.27;;;1.50;99.90;;;;;;4994036;28;20552;-78
2021/04/06 04:17:51;;;;;;;8.67;2.30;;;1.40;99.90;;;;;;4992915;28;20486;-78
2021/04/06 04:20:20;;;;;;;11.37;2.33;;;1.40;99.90;;;;;;5010529;28;20504;-78
2021/04/06 04:22:51;;;;;;;10.03;2.20;;;1.30;99.90;;;;;;5012803;28;20483;-78
2021/04/06 04:25:21;;;;;;;8.17;2.27;;;1.40;99.90;;;;;;5013215;28;20477;-78
2021/04/06 04:27:48;;;;;;;10.57;2.10;;;1.30;99.90;;;;;;5011065;28;20477;-78
2021/04/06 04:30:35;;;;;;;10.00;2.03;;;1.30;99.90;;;;;;4991965;28;20493;-79
2021/04/06 04:33:05;;;;;;;11.67;2.03;;;1.30;99.90;;;;;;5016041;28;20487;-78
2021/04/06 04:35:33;;;;;;;8.90;2.10;;;1.30;99.90;;;;;;5010875;28;20876;-78
2021/04/06 04:38:00;;;;;;;8.47;2.43;;;1.20;99.90;;;;;;5027163;28;20481;-78
2021/04/06 04:40:29;;;;;;;11.23;1.93;;;1.20;99.90;;;;;;5010935;28;20466;-78
2021/04/06 04:42:57;;;;;;;14.03;2.10;;;1.30;99.90;;;;;;5019726;28;20482;-78
2021/04/06 04:45:25;;;;;;;9.87;2.27;;;1.30;99.90;;;;;;5013022;28;20469;-78
2021/04/06 04:47:53;;;;;;;11.47;2.10;;;1.40;99.90;;;;;;5010534;28;20479;-79
2021/04/06 04:50:22;;;;;;;14.07;2.87;;;1.40;99.90;;;;;;5006415;28;20516;-78
2021/04/06 04:52:51;;;;;;;11.40;2.80;;;1.50;99.90;;;;;;5011638;28;20477;-79
2021/04/06 04:55:20;;;;;;;10.40;2.23;;;1.50;99.90;;;;;;5017944;28;20455;-78
2021/04/06 04:57:48;;;;;;;7.30;2.17;;;1.50;99.90;;;;;;5009983;28;20473;-78
2021/04/06 05:00:18;;;;;;;12.07;2.30;;;1.50;99.90;;;;;;5010888;28;21234;-78
2021/04/06 05:02:45;;;;;;;14.13;2.53;;;1.50;99.90;;;;;;5011113;28;20482;-79
2021/04/06 05:05:17;;;;;;;12.60;2.70;;;1.50;99.90;;;;;;5010137;28;20755;-78
2021/04/06 05:07:47;;;;;;;9.03;1.97;;;1.50;99.90;;;;;;4988955;28;20523;-78
2021/04/06 05:10:16;;;;;;;10.73;2.27;;;1.50;99.90;;;;;;4988900;28;20496;-78
2021/04/06 05:12:47;;;;;;;9.40;2.20;;;1.40;99.90;;;;;;4990140;28;20474;-78
2021/04/06 05:15:17;;;;;;;7.00;2.33;;;1.50;99.90;;;;;;4995376;28;20471;-78
2021/04/06 05:17:46;;;;;;;10.17;2.50;;;1.50;99.90;;;;;;4995231;28;20510;-78
2021/04/06 05:20:15;;;;;;;8.37;2.33;;;1.90;99.90;;;;;;4988200;28;21065;-78
2021/04/06 05:22:42;;;;;;;10.10;3.13;;;1.90;99.90;;;;;;4991252;28;20541;-78
2021/04/06 05:25:12;;;;;;;8.93;2.60;;;1.90;99.90;;;;;;5004569;28;20980;-79
2021/04/06 05:27:39;;;;;;;6.17;1.90;;;1.70;99.90;;;;;;5006543;28;20474;-78
2021/04/06 05:30:08;;;;;;;9.93;2.37;;;1.80;99.90;;;;;;4992065;28;20896;-78
2021/04/06 05:32:36;;;;;;;8.23;2.37;;;1.70;99.90;;;;;;4989848;28;20482;-79
2021/04/06 05:35:06;;;;;;;8.83;2.47;;;1.60;99.90;;;;;;4989349;28;20483;-78
2021/04/06 05:37:34;;;;;;;12.97;2.60;;;1.70;99.90;;;;;;4991857;28;21041;-79
2021/04/06 05:40:01;;;;;;;10.73;2.73;;;1.70;99.90;;;;;;4993045;28;20482;-78
2021/04/06 05:42:30;;;;;;;8.37;2.67;;;1.70;99.90;;;;;;5010603;28;20879;-78
2021/04/06 05:44:57;;;;;;;16.23;2.63;;;1.70;99.90;;;;;;5015197;28;20895;-78
2021/04/06 05:47:31;;;;;;;11.47;2.83;;;1.70;99.90;;;;;;5004142;28;21040;-78
2021/04/06 05:49:58;;;;;;;14.03;2.80;;;1.80;99.90;;;;;;4999564;28;20473;-79
2021/04/06 05:52:26;;;;;;;18.37;3.13;;;1.70;99.90;;;;;;4994796;28;20504;-79
2021/04/06 05:54:53;;;;;;;12.63;2.50;;;1.80;99.90;;;;;;4996243;28;20480;-78
2021/04/06 05:57:21;;;;;;;13.40;2.57;;;1.80;99.90;;;;;;4994494;28;20479;-78
2021/04/06 05:59:49;;;;;;;10.77;2.20;;;1.90;99.90;;;;;;4993562;28;20479;-78
2021/04/06 06:02:16;;;;;;;9.93;2.40;;;1.90;99.90;;;;;;4991957;28;20483;-79
2021/04/06 06:04:44;;;;;;;8.93;2.57;;;1.90;99.90;;;;;;4994162;28;20533;-78
2021/04/06 06:07:12;;;;;;;13.60;3.60;;;1.80;99.90;;;;;;4989055;28;20615;-78
2021/04/06 06:09:39;;;;;;;12.47;3.23;;;1.80;99.90;;;;;;4998381;28;20486;-79
2021/04/06 06:12:10;;;;;;;12.20;3.63;;;1.80;99.90;;;;;;4994712;28;20482;-79
2021/04/06 06:14:39;;;;;;;13.60;3.17;;;1.80;99.90;;;;;;4994870;28;20619;-78
2021/04/06 06:17:15;;;;;;;12.37;2.57;;;1.80;99.90;;;;;;4988233;28;20489;-79
2021/04/06 06:19:44;;;;;;;11.30;2.40;;;1.80;99.90;;;;;;4972851;28;20482;-79
2021/04/06 06:22:15;;;;;;;12.53;2.80;;;1.90;99.90;;;;;;4987064;28;20518;-79
2021/04/06 06:24:48;;;;;;;13.90;2.83;;;1.90;99.90;;;;;;4987673;28;20485;-78
2021/04/06 06:27:38;;;;;;;14.70;2.90;;;2.00;99.90;;;;;;4988383;28;21024;-79
2021/04/06 06:30:28;;;;;;;7.27;2.17;;;2.20;99.90;;;;;;5006454;28;20531;-79
2021/04/06 06:33:19;;;;;;;14.47;2.43;;;2.50;99.90;;;;;;5005021;28;20474;-79
2021/04/06 06:35:50;;;;;;;10.63;2.43;;;2.70;99.90;;;;;;5005421;28;21037;-79
2021/04/06 06:38:20;;;;;;;9.90;2.37;;;2.80;99.90;;;;;;5005742;28;20497;-79
2021/04/06 06:40:50;;;;;;;10.17;2.57;;;3.10;99.90;;;;;;5010942;28;20896;-79
2021/04/06 06:43:19;;;;;;;11.23;2.77;;;3.20;99.90;;;;;;5013651;28;20513;-79
2021/04/06 06:45:50;;;;;;;12.57;2.67;;;3.30;99.90;;;;;;5028328;28;20520;-80
2021/04/06 06:48:31;;;;;;;15.53;2.90;;;3.40;99.90;;;;;;5013097;28;20510;-79
2021/04/06 06:51:01;;;;;;;13.17;2.63;;;3.50;99.90;;;;;;5000785;28;20478;-79
2021/04/06 06:53:36;;;;;;;11.43;2.97;;;3.80;99.90;;;;;;5010285;28;20473;-80
2021/04/06 06:56:06;;;;;;;10.20;2.40;;;4.00;99.90;;;;;;5012693;28;20472;-78
2021/04/06 06:58:36;;;;;;;11.57;2.93;;;4.20;99.90;;;;;;5003709;28;20472;-79
2021/04/06 07:01:04;;;;;;;13.97;2.87;;;4.30;99.90;;;;;;5009969;28;20505;-79
2021/04/06 07:03:36;;;;;;;13.93;2.40;;;4.30;99.90;;;;;;5011481;28;20490;-79
2021/04/06 07:06:23;;;;;;;12.07;2.33;;;4.10;99.90;;;;;;5010469;28;20490;-79
2021/04/06 07:08:55;;;;;;;14.27;2.50;;;3.90;99.90;;;;;;5004401;28;20502;-80
2021/04/06 07:11:23;;;;;;;13.67;2.43;;;3.90;99.90;;;;;;5007282;28;20481;-80
2021/04/06 07:13:53;;;;;;;13.20;2.53;;;3.80;99.90;;;;;;5022411;28;20529;-80
2021/04/06 07:16:21;;;;;;;9.10;2.20;;;3.70;99.90;;;;;;5006766;28;20486;-81
2021/04/06 07:18:51;;;;;;;9.23;2.07;;;3.50;99.90;;;;;;5008791;28;20550;-80
2021/04/06 07:21:20;;;;;;;10.40;2.60;;;3.60;99.90;;;;;;5007809;28;20564;-80
2021/04/06 07:23:57;;;;;;;7.90;2.10;;;3.90;99.90;;;;;;5003756;28;20520;-81
2021/04/06 07:26:26;;;;;;;12.10;1.67;;;4.20;99.90;;;;;;5005653;28;20485;-80
2021/04/06 07:28:53;;;;;;;6.40;1.50;;;4.40;99.90;;;;;;4999409;28;20538;-81
2021/04/06 07:31:21;;;;;;;3.90;1.60;;;4.70;99.90;;;;;;5002524;28;20482;-81
2021/04/06 07:33:48;;;;;;;6.67;1.40;;;4.80;99.90;;;;;;5001928;28;20483;-81
2021/04/06 07:36:22;;;;;;;5.03;1.77;;;5.00;99.90;;;;;;5007519;28;20490;-81
2021/04/06 07:38:52;;;;;;;6.73;1.50;;;5.10;99.90;;;;;;5011223;28;20503;-81
2021/04/06 07:41:23;;;;;;;9.17;1.77;;;5.20;99.90;;;;;;5009476;28;21017;-81
2021/04/06 07:43:52;;;;;;;6.37;1.70;;;5.00;99.90;;;;;;5004715;28;20733;-80
2021/04/06 07:46:42;;;;;;;4.73;1.93;;;4.90;99.90;;;;;;4999917;28;20979;-80
2021/04/06 07:49:14;;;;;;;6.60;1.53;;;5.30;99.90;;;;;;5012157;28;20533;-80
2021/04/06 07:51:51;;;;;;;3.73;1.33;;;5.80;99.90;;;;;;5006777;28;20237;-80
2021/04/06 07:54:21;;;;;;;4.10;1.30;;;6.10;99.90;;;;;;5004480;28;20248;-80
2021/04/06 07:56:58;;;;;;;5.07;1.23;;;6.40;99.90;;;;;;5011687;28;21867;-80
2021/04/06 07:59:51;;;;;;;3.83;1.13;;;6.50;99.90;;;;;;5004983;28;20380;-82
2021/04/06 08:02:33;;;;;;;5.47;1.37;;;6.70;99.90;;;;;;5009421;28;20688;-80
2021/04/06 08:05:03;;;;;;;5.10;1.53;;;6.70;99.90;;;;;;5006963;28;20716;-80
2021/04/06 08:07:34;;;;;;;8.97;1.83;;;6.60;99.90;;;;;;5012834;28;20245;-80
2021/04/06 08:10:47;;;;;;;6.26;1.46;;;6.90;99.90;;;;;;3513718;28;10022777;-80
2021/04/06 08:13:16;;;;;;;9.87;1.77;;;7.10;99.90;;;;;;3628758;28;10002016;-81
2021/04/06 08:15:43;;;;;;;8.73;1.80;;;7.20;99.90;;;;;;5006831;28;20512;-80
2021/04/06 08:18:15;;;;;;;6.27;1.83;;;7.30;99.90;;;;;;5010055;28;20239;-83
2021/04/06 08:20:47;;;;;;;6.63;1.83;;;6.40;99.90;;;;;;5011813;28;20255;-81
2021/04/06 08:23:39;;;;;;;7.20;2.10;;;5.50;99.90;;;;;;5010922;28;20313;-80
2021/04/06 08:26:27;;;;;;;8.80;1.87;;;5.00;99.90;;;;;;5001765;28;20240;-80
2021/04/06 08:28:55;;;;;;;6.83;1.83;;;4.60;99.90;;;;;;5009558;28;20294;-81
2021/04/06 08:31:34;;;;;;;8.77;3.10;;;4.40;99.90;;;;;;5008071;28;21193;-80
2021/04/06 08:34:28;;;;;;;8.90;2.57;;;4.50;99.90;;;;;;5002992;28;20333;-80
2021/04/06 08:37:36;;;;;;;9.83;2.40;;;4.70;99.90;;;;;;5002521;28;20240;-80
2021/04/06 08:40:08;;;;;;;6.30;1.97;;;5.00;99.90;;;;;;5005595;28;20493;-82
2021/04/06 08:42:37;;;;;;;6.13;2.37;;;5.40;99.90;;;;;;5008256;28;20240;-82
2021/04/06 08:45:07;;;;;;;8.43;2.20;;;5.50;99.90;;;;;;5005527;28;20247;-81
2021/04/06 08:47:44;;;;;;;8.27;2.23;;;5.70;99.90;;;;;;5006633;28;20254;-81
2021/04/06 08:50:30;;;;;;;9.87;2.27;;;5.90;99.90;;;;;;5026986;28;20415;-82
2021/04/06 08:52:58;;;;;;;6.33;1.83;;;5.90;99.90;;;;;;5005238;28;20256;-80
2021/04/06 08:55:27;;;;;;;8.80;2.30;;;5.60;99.90;;;;;;5005046;28;20280;-81
2021/04/06 08:57:59;;;;;;;8.90;2.30;;;5.50;99.90;;;;;;5005570;28;20596;-81
2021/04/06 09:00:28;;;;;;;6.97;2.47;;;5.20;99.90;;;;;;5011622;28;20953;-79
2021/04/06 09:03:04;;;;;;;8.67;2.20;;;4.70;99.90;;;;;;5010435;28;20268;-80
2021/04/06 09:05:31;;;;;;;5.33;1.90;;;4.50;99.90;;;;;;5002574;28;20241;-80
2021/04/06 09:07:59;;;;;;;7.63;1.90;;;4.50;99.90;;;;;;5004643;28;20553;-80
2021/04/06 09:10:38;;;;;;;5.47;1.87;;;4.50;99.90;;;;;;5009550;28;20676;-79
2021/04/06 09:13:06;;;;;;;5.53;2.27;;;4.90;99.90;;;;;;5013242;28;20472;-78
2021/04/06 09:15:33;;;;;;;5.73;2.40;;;5.40;99.90;;;;;;5012738;28;20244;-79
2021/04/06 09:18:04;;;;;;;6.07;1.70;;;5.90;99.90;;;;;;5011886;28;20290;-78
2021/04/06 09:20:33;;;;;;;9.07;2.57;;;6.00;99.90;;;;;;5005579;28;20240;-78
2021/04/06 09:23:06;;;;;;;5.30;1.60;;;5.50;99.90;;;;;;5009429;28;20622;-80
2021/04/06 09:25:36;;;;;;;9.80;2.13;;;5.00;99.90;;;;;;5007446;28;20487;-80
2021/04/06 09:28:06;;;;;;;6.10;1.60;;;4.60;99.90;;;;;;5008160;28;20236;-80
2021/04/06 09:30:43;;;;;;;8.33;2.40;;;4.40;99.90;;;;;;5010340;28;20480;-80
2021/04/06 09:33:14;;;;;;;8.70;1.97;;;4.30;99.90;;;;;;5011420;28;20475;-79
2021/04/06 09:35:47;;;;;;;7.47;1.60;;;4.20;99.90;;;;;;5010062;28;20524;-80
2021/04/06 09:38:18;;;;;;;7.47;1.53;;;4.20;99.90;;;;;;5008804;28;20495;-79
2021/04/06 09:40:48;;;;;;;6.07;1.80;;;4.20;99.90;;;;;;5007591;28;20290;-80
2021/04/06 09:43:15;;;;;;;8.13;1.93;;;4.30;99.90;;;;;;5008953;28;20483;-79
2021/04/06 09:45:43;;;;;;;6.20;1.90;;;4.40;99.90;;;;;;5006451;28;20231;-80
2021/04/06 09:48:13;;;;;;;6.90;1.83;;;4.10;99.90;;;;;;5008861;28;20490;-80
2021/04/06 09:50:55;;;;;;;9.20;1.80;;;3.90;99.90;;;;;;5007892;28;20615;-79
2021/04/06 09:53:23;;;;;;;8.90;2.10;;;3.80;99.90;;;;;;5025465;28;20474;-80
2021/04/06 09:55:54;;;;;;;4.97;1.60;;;3.70;99.90;;;;;;5009437;28;20480;-79
2021/04/06 09:58:23;;;;;;;9.20;1.90;;;3.70;99.90;;;;;;5005077;28;20490;-78
2021/04/06 10:00:51;;;;;;;8.57;1.97;;;3.70;99.90;;;;;;5008931;28;20476;-79
2021/04/06 10:03:24;;;;;;;6.27;1.77;;;3.70;99.90;;;;;;5009054;28;21020;-81
2021/04/06 10:06:04;;;;;;;8.37;1.77;;;3.80;99.90;;;;;;5005956;28;20531;-80
2021/04/06 10:08:34;;;;;;;4.57;1.30;;;3.90;99.90;;;;;;5006147;28;20467;-81
2021/04/06 10:11:03;;;;;;;9.85;1.95;;;4.00;99.90;;;;;;5005326;28;20437;-80
2021/04/06 10:13:37;;;;;;;6.40;1.50;;;3.90;99.90;;;;;;5008819;28;20590;-81
2021/04/06 10:16:09;;;;;;;7.27;1.60;;;4.00;99.90;;;;;;5010234;28;20967;-80
2021/04/06 10:18:40;;;;;;;8.20;1.50;;;4.10;99.90;;;;;;5009329;28;20526;-80
2021/04/06 10:21:25;;;;;;;6.33;1.70;;;4.30;99.90;;;;;;5008209;28;20491;-81
2021/04/06 10:24:01;;;;;;;5.67;1.57;;;4.80;99.90;;;;;;5007616;28;20483;-82
2021/04/06 10:26:30;;;;;;;5.30;1.30;;;5.40;99.90;;;;;;5010523;28;20491;-81
2021/04/06 10:29:07;;;;;;;7.00;1.53;;;5.90;99.90;;;;;;5009767;28;20482;-81
2021/04/06 10:31:54;;;;;;;7.20;1.57;;;6.10;99.90;;;;;;5010000;28;20291;-82
2021/04/06 10:34:22;;;;;;;3.90;1.20;;;6.30;99.90;;;;;;5027260;28;20505;-83
2021/04/06 10:36:58;;;;;;;6.90;1.43;;;6.80;99.90;;;;;;5013731;28;20476;-82
2021/04/06 10:39:33;;;;;;;6.03;1.50;;;7.70;99.90;;;;;;5017360;28;20689;-82
2021/04/06 10:42:04;;;;;;;6.53;1.50;;;8.30;99.90;;;;;;5012052;28;20233;-85
2021/04/06 10:44:32;;;;;;;5.37;1.40;;;8.70;99.90;;;;;;5010996;28;20759;-83
2021/04/06 10:46:59;;;;;;;6.90;1.80;;;8.80;99.90;;;;;;5011297;28;20303;-82
2021/04/06 10:49:27;;;;;;;8.73;1.67;;;8.40;99.90;;;;;;5003282;28;20229;-84
2021/04/06 10:52:01;;;;;;;5.17;1.50;;;7.80;99.90;;;;;;5007025;28;20241;-83
2021/04/06 10:54:28;;;;;;;7.73;1.63;;;7.20;99.90;;;;;;5006446;28;20236;-84
2021/04/06 10:56:58;;;;;;;6.73;1.43;;;6.80;99.90;;;;;;5010868;28;20758;-82
2021/04/06 10:59:47;;;;;;;8.97;1.80;;;6.10;99.90;;;;;;5008877;28;20320;-83
2021/04/06 11:02:20;;;;;;;6.43;1.53;;;5.60;99.90;;;;;;5008385;28;20237;-82
2021/04/06 11:04:48;;;;;;;7.60;1.43;;;5.10;99.90;;;;;;5008677;28;20237;-82
2021/04/06 11:07:27;;;;;;;5.33;1.20;;;4.60;99.90;;;;;;5008645;28;20604;-82
2021/04/06 11:10:04;;;;;;;4.47;1.60;;;4.10;99.90;;;;;;5006461;28;20311;-82
2021/04/06 11:12:32;;;;;;;7.10;1.63;;;3.80;99.90;;;;;;5008903;28;20475;-82
2021/04/06 11:15:00;;;;;;;4.63;1.50;;;3.60;99.90;;;;;;5016198;28;20746;-83
2021/04/06 11:17:28;;;;;;;2.80;1.00;;;3.50;99.90;;;;;;5009326;28;21008;-82
2021/04/06 11:19:57;;;;;;;5.37;1.40;;;3.40;99.90;;;;;;5006499;28;20471;-82
2021/04/06 11:22:28;;;;;;;5.90;1.20;;;3.40;99.90;;;;;;5010112;28;20490;-81
2021/04/06 11:24:55;;;;;;;8.00;1.63;;;3.30;99.90;;;;;;5004776;28;20435;-83
2021/04/06 11:27:23;;;;;;;5.03;1.30;;;3.20;99.90;;;;;;5006101;28;20772;-83
2021/04/06 11:29:50;;;;;;;7.33;1.43;;;3.20;99.90;;;;;;5009867;28;20480;-82
2021/04/06 11:32:21;;;;;;;6.73;1.33;;;3.20;99.90;;;;;;5006447;28;21046;-82
2021/04/06 11:34:50;;;;;;;3.70;1.10;;;3.20;99.90;;;;;;5000279;28;20500;-81
2021/04/06 11:37:17;;;;;;;10.27;1.90;;;3.20;99.90;;;;;;5009360;28;20905;-82
2021/04/06 11:39:47;;;;;;;5.87;1.20;;;3.20;99.90;;;;;;5005128;28;20999;-82
2021/04/06 11:42:17;;;;;;;5.00;1.43;;;3.20;99.90;;;;;;4999879;28;20482;-81
2021/04/06 11:44:45;;;;;;;4.43;1.30;;;3.20;99.90;;;;;;5009431;28;20917;-81
2021/04/06 11:47:16;;;;;;;5.13;1.13;;;3.20;99.90;;;;;;5008775;28;21072;-83
2021/04/06 11:49:44;;;;;;;6.07;2.00;;;3.20;99.90;;;;;;5010354;28;20483;-82
2021/04/06 11:52:38;;;;;;;3.53;1.17;;;3.20;99.90;;;;;;5007937;28;20507;-81
2021/04/06 11:55:08;;;;;;;5.60;1.30;;;3.30;99.90;;;;;;5008882;28;20483;-82
2021/04/06 11:57:36;;;;;;;6.70;1.60;;;3.20;99.90;;;;;;5009908;28;20976;-81
2021/04/06 12:00:05;;;;;;;8.70;1.77;;;3.10;99.90;;;;;;5010785;28;20558;-82
2021/04/06 12:02:58;;;;;;;7.27;1.70;;;3.10;99.90;;;;;;5007765;28;20479;-80
2021/04/06 12:05:27;;;;;;;6.43;1.80;;;3.20;99.90;;;;;;5007057;28;20807;-82
2021/04/06 12:07:54;;;;;;;11.07;2.20;;;3.50;99.90;;;;;;5013057;28;20519;-81
2021/04/06 12:10:48;;;;;;;8.73;1.90;;;3.70;99.90;;;;;;4998969;28;21073;-82
2021/04/06 12:13:16;;;;;;;5.73;1.37;;;3.90;99.90;;;;;;5000410;28;20568;-83
2021/04/06 12:15:44;;;;;;;5.20;1.30;;;4.20;99.90;;;;;;4998227;28;20566;-82
2021/04/06 12:18:12;;;;;;;3.63;1.07;;;4.60;99.90;;;;;;4996842;28;20480;-82
2021/04/06 12:20:41;;;;;;;6.50;1.20;;;4.90;99.90;;;;;;4999084;28;20495;-82
2021/04/06 12:23:09;;;;;;;3.23;1.20;;;4.90;99.90;;;;;;5001727;28;20491;-80
2021/04/06 12:25:36;;;;;;;6.97;1.50;;;4.90;99.90;;;;;;4999893;28;20491;-80
2021/04/06 12:28:05;;;;;;;2.60;1.00;;;4.90;99.90;;;;;;4999724;28;20502;-80
2021/04/06 12:30:32;;;;;;;6.83;1.50;;;4.90;99.90;;;;;;4996521;28;20484;-82
2021/04/06 12:33:01;;;;;;;6.50;1.53;;;5.00;99.90;;;;;;4982994;28;20475;-82
2021/04/06 12:35:29;;;;;;;7.23;1.10;;;5.20;99.90;;;;;;4993211;28;20855;-81
2021/04/06 12:37:58;;;;;;;6.60;1.50;;;5.40;99.90;;;;;;4997151;28;20483;-80
2021/04/06 12:40:28;;;;;;;5.70;1.57;;;5.60;99.90;;;;;;4986886;28;20891;-80
2021/04/06 12:42:55;;;;;;;9.03;1.77;;;5.80;99.90;;;;;;4991018;28;20503;-80
2021/04/06 12:45:22;;;;;;;6.40;1.40;;;5.90;99.90;;;;;;4990018;28;22785;-81
2021/04/06 12:47:50;;;;;;;5.17;1.40;;;5.40;99.90;;;;;;5008128;28;20586;-82
2021/04/06 12:50:18;;;;;;;3.43;0.90;;;4.40;99.90;;;;;;5003917;28;20244;-81
2021/04/06 12:52:45;;;;;;;3.80;0.90;;;4.20;99.90;;;;;;4993811;28;20589;-80
2021/04/06 12:55:15;;;;;;;5.50;1.07;;;4.10;99.90;;;;;;5002959;28;20497;-80
2021/04/06 12:57:42;;;;;;;4.40;0.90;;;4.10;99.90;;;;;;4989306;28;20559;-81
2021/04/06 13:00:12;;;;;;;3.30;1.00;;;4.20;99.90;;;;;;4987983;28;20492;-80
2021/04/06 13:02:39;;;;;;;6.03;1.10;;;4.20;99.90;;;;;;4989863;28;20531;-80
2021/04/06 13:05:08;;;;;;;3.63;0.90;;;4.30;99.90;;;;;;4987681;28;20541;-80
2021/04/06 13:07:37;;;;;;;4.33;1.20;;;4.50;99.90;;;;;;4990792;28;20994;-81
2021/04/06 13:10:06;;;;;;;7.10;1.10;;;4.80;99.90;;;;;;4984331;28;20503;-81
2021/04/06 13:12:34;;;;;;;6.33;1.50;;;5.00;99.90;;;;;;4989405;28;20478;-81
2021/04/06 13:15:02;;;;;;;2.40;0.77;;;5.20;99.90;;;;;;4982771;28;21004;-80
2021/04/06 13:17:29;;;;;;;2.40;0.50;;;5.10;99.90;;;;;;5006789;28;20482;-80